Time;durP1;ratioP1;P1;durP2;ratioP2;P2;SDS_P1;SDS_P2;PMS_P1;PMS_P2;Temp;Humidity;BMP_temperature;BMP_pressure;BME280_temperature;BME280_humidity;BME280_pressure;Samples;Min_cycle;Max_cycle;Signal;HPM_P1;HPM_P2
2022/07/11 00:01:52;;;;;;;1.60;1.60;;;;;;;;;;5078960;28;20251;-67
2022/07/11 00:04:21;;;;;;;1.40;1.40;;;;;;;;;;5078450;28;20299;-67
2022/07/11 00:06:48;;;;;;;1.90;1.50;;;;;;;;;;5076502;28;20256;-67
2022/07/11 00:09:15;;;;;;;3.03;2.15;;;;;;;;;;5077152;28;20207;-66
2022/07/11 00:11:42;;;;;;;2.33;2.03;;;;;;;;;;5080595;28;20199;-65
2022/07/11 00:14:09;;;;;;;2.03;1.83;;;;;;;;;;5072671;28;20206;-65
2022/07/11 00:16:36;;;;;;;2.72;1.80;;;;;;;;;;5080330;28;20261;-65
2022/07/11 00:19:05;;;;;;;1.80;1.80;;;;;;;;;;5072457;28;20623;-65
2022/07/11 00:21:32;;;;;;;1.67;1.67;;;;;;;;;;5077231;28;20256;-64
2022/07/11 00:23:59;;;;;;;1.77;1.67;;;;;;;;;;5076319;28;20207;-65
2022/07/11 00:26:26;;;;;;;1.75;1.75;;;;;;;;;;5079768;28;20696;-65
2022/07/11 00:28:53;;;;;;;1.92;1.83;;;;;;;;;;5078492;28;20207;-65
2022/07/11 00:31:20;;;;;;;2.17;2.08;;;;;;;;;;5076212;28;20203;-65
2022/07/11 00:33:47;;;;;;;2.08;1.98;;;;;;;;;;5079490;28;20202;-65
2022/07/11 00:36:16;;;;;;;1.80;1.70;;;;;;;;;;5072415;28;20203;-65
2022/07/11 00:38:43;;;;;;;2.05;1.92;;;;;;;;;;5069453;28;20199;-67
2022/07/11 00:41:10;;;;;;;2.00;1.90;;;;;;;;;;5069544;28;20207;-64
2022/07/11 00:43:38;;;;;;;1.77;1.77;;;;;;;;;;5070797;28;20203;-65
2022/07/11 00:46:05;;;;;;;1.98;1.88;;;;;;;;;;5070346;28;20239;-64
2022/07/11 00:48:32;;;;;;;1.60;1.60;;;;;;;;;;5070424;28;20244;-67
2022/07/11 00:51:00;;;;;;;1.65;1.65;;;;;;;;;;5068558;28;20257;-65
2022/07/11 00:53:28;;;;;;;2.25;2.08;;;;;;;;;;5067898;28;20203;-65
2022/07/11 00:55:56;;;;;;;1.73;1.67;;;;;;;;;;5067856;28;20280;-65
2022/07/11 00:58:23;;;;;;;1.80;1.80;;;;;;;;;;5067883;28;20340;-65
2022/07/11 01:00:50;;;;;;;1.65;1.65;;;;;;;;;;5067974;28;20295;-65
2022/07/11 01:03:18;;;;;;;2.58;1.75;;;;;;;;;;5069024;28;20195;-65
2022/07/11 01:05:45;;;;;;;1.60;1.60;;;;;;;;;;5069156;28;20257;-65
2022/07/11 01:08:12;;;;;;;3.22;2.05;;;;;;;;;;5068785;28;20203;-65
2022/07/11 01:10:40;;;;;;;2.50;1.70;;;;;;;;;;5068191;28;20673;-65
2022/07/11 01:13:08;;;;;;;1.55;1.55;;;;;;;;;;5068792;28;20199;-65
2022/07/11 01:15:36;;;;;;;1.75;1.67;;;;;;;;;;5068205;28;20704;-65
2022/07/11 01:18:03;;;;;;;2.88;1.75;;;;;;;;;;5064678;28;20260;-65
2022/07/11 01:20:30;;;;;;;2.22;1.90;;;;;;;;;;5068258;28;20231;-65
2022/07/11 01:22:57;;;;;;;2.13;1.98;;;;;;;;;;5067579;28;20246;-65
2022/07/11 01:25:35;;;;;;;2.10;2.00;;;;;;;;;;5069669;28;20272;-66
2022/07/11 01:28:02;;;;;;;2.05;1.95;;;;;;;;;;5069744;28;20214;-65
2022/07/11 01:30:30;;;;;;;2.03;1.90;;;;;;;;;;5069616;28;20226;-65
2022/07/11 01:32:58;;;;;;;1.75;1.67;;;;;;;;;;5068213;28;20203;-65
2022/07/11 01:35:25;;;;;;;2.03;1.92;;;;;;;;;;5067830;28;20240;-66
2022/07/11 01:37:52;;;;;;;1.92;1.92;;;;;;;;;;5068601;28;20265;-65
2022/07/11 01:40:19;;;;;;;4.10;2.17;;;;;;;;;;5067681;28;20245;-65
2022/07/11 01:42:48;;;;;;;1.98;1.80;;;;;;;;;;5068537;28;20211;-65
2022/07/11 01:45:15;;;;;;;2.47;2.00;;;;;;;;;;5065566;28;20300;-65
2022/07/11 01:47:42;;;;;;;1.90;1.80;;;;;;;;;;5067624;28;20199;-67
2022/07/11 01:50:09;;;;;;;1.77;1.67;;;;;;;;;;5067965;28;20652;-65
2022/07/11 01:52:36;;;;;;;1.77;1.77;;;;;;;;;;5067323;28;20203;-65
2022/07/11 01:55:03;;;;;;;2.00;1.90;;;;;;;;;;5063785;28;20260;-64
2022/07/11 01:57:30;;;;;;;3.65;1.40;;;;;;;;;;5061889;28;20215;-66
2022/07/11 01:59:59;;;;;;;2.95;2.00;;;;;;;;;;5067329;28;20233;-68
2022/07/11 02:02:26;;;;;;;2.00;1.90;;;;;;;;;;5059919;28;20222;-65
2022/07/11 02:04:53;;;;;;;2.08;1.98;;;;;;;;;;5060847;28;20198;-65
2022/07/11 02:08:11;;;;;;;1.75;1.75;;;;;;;;;;5062124;28;20281;-65
2022/07/11 02:10:09;;;;;;;1.90;1.80;;;;;;;;;;5063435;28;20199;-65
2022/07/11 02:12:36;;;;;;;1.85;1.85;;;;;;;;;;5060643;28;20203;-66
2022/07/11 02:15:05;;;;;;;2.00;1.90;;;;;;;;;;5061656;28;20206;-66
2022/07/11 02:17:32;;;;;;;1.48;1.48;;;;;;;;;;5057250;28;20199;-68
2022/07/11 02:19:59;;;;;;;1.90;1.80;;;;;;;;;;5060845;28;20334;-64
2022/07/11 02:22:27;;;;;;;1.52;1.52;;;;;;;;;;5065365;28;20673;-65
2022/07/11 02:24:54;;;;;;;2.58;1.73;;;;;;;;;;5065724;28;20203;-65
2022/07/11 02:27:21;;;;;;;1.73;1.63;;;;;;;;;;5067220;28;20203;-65
2022/07/11 02:29:48;;;;;;;2.08;1.67;;;;;;;;;;5067349;28;20229;-66
2022/07/11 02:32:16;;;;;;;1.83;1.73;;;;;;;;;;5067426;28;20209;-66
2022/07/11 02:34:43;;;;;;;1.63;1.52;;;;;;;;;;5067718;28;20214;-66
2022/07/11 02:37:10;;;;;;;1.73;1.65;;;;;;;;;;5067018;28;20203;-66
2022/07/11 02:39:38;;;;;;;1.73;1.65;;;;;;;;;;5067759;28;20211;-66
2022/07/11 02:42:05;;;;;;;1.55;1.50;;;;;;;;;;5067267;28;20214;-65
2022/07/11 02:44:32;;;;;;;1.67;1.67;;;;;;;;;;5067187;28;20693;-66
2022/07/11 02:46:59;;;;;;;1.77;1.77;;;;;;;;;;5066536;28;20206;-66
2022/07/11 02:49:28;;;;;;;1.92;1.88;;;;;;;;;;5066154;28;20214;-66
2022/07/11 02:51:55;;;;;;;1.70;1.70;;;;;;;;;;5067562;28;20203;-66
2022/07/11 02:54:22;;;;;;;2.08;1.88;;;;;;;;;;5067594;28;20231;-65
2022/07/11 02:56:49;;;;;;;2.30;1.83;;;;;;;;;;5067102;28;20206;-65
2022/07/11 02:59:16;;;;;;;2.25;2.10;;;;;;;;;;5065370;28;20203;-65
2022/07/11 03:01:43;;;;;;;1.92;1.83;;;;;;;;;;5066657;28;20219;-66
2022/07/11 03:04:10;;;;;;;2.30;2.10;;;;;;;;;;5066822;28;20203;-65
2022/07/11 03:06:39;;;;;;;5.50;2.00;;;;;;;;;;5065549;28;20746;-65
2022/07/11 03:09:06;;;;;;;1.90;1.80;;;;;;;;;;5066454;28;20652;-65
2022/07/11 03:11:33;;;;;;;1.98;1.98;;;;;;;;;;5065953;28;20199;-65
2022/07/11 03:14:00;;;;;;;1.90;1.90;;;;;;;;;;5066935;28;20211;-65
2022/07/11 03:16:28;;;;;;;2.08;2.08;;;;;;;;;;5066435;28;20260;-65
2022/07/11 03:18:55;;;;;;;1.70;1.70;;;;;;;;;;5066418;28;20215;-66
2022/07/11 03:21:22;;;;;;;1.88;1.88;;;;;;;;;;5065465;28;20231;-65
2022/07/11 03:23:50;;;;;;;1.88;1.88;;;;;;;;;;5067066;28;20218;-65
2022/07/11 03:26:18;;;;;;;1.83;1.73;;;;;;;;;;5065686;28;20260;-65
2022/07/11 03:28:45;;;;;;;2.50;1.88;;;;;;;;;;5065759;28;20215;-66
2022/07/11 03:31:12;;;;;;;1.80;1.63;;;;;;;;;;5063814;28;20203;-65
2022/07/11 03:33:43;;;;;;;2.22;2.22;;;;;;;;;;5066121;28;20207;-65
2022/07/11 03:36:10;;;;;;;2.00;1.90;;;;;;;;;;5065853;28;20199;-66
2022/07/11 03:38:37;;;;;;;2.28;2.15;;;;;;;;;;5065132;28;20199;-66
2022/07/11 03:41:06;;;;;;;1.98;1.98;;;;;;;;;;5065955;28;20227;-66
2022/07/11 03:43:33;;;;;;;1.80;1.70;;;;;;;;;;5062783;28;20206;-66
2022/07/11 03:46:00;;;;;;;2.30;2.10;;;;;;;;;;5064540;28;20239;-66
2022/07/11 03:48:27;;;;;;;2.13;2.08;;;;;;;;;;5065244;28;20616;-66
2022/07/11 03:50:54;;;;;;;2.47;2.25;;;;;;;;;;5066575;28;21005;-66
2022/07/11 03:53:21;;;;;;;2.05;2.05;;;;;;;;;;5066311;28;20219;-66
2022/07/11 03:55:48;;;;;;;2.30;2.20;;;;;;;;;;5065842;28;20219;-66
2022/07/11 03:58:17;;;;;;;3.03;2.20;;;;;;;;;;5068265;28;20563;-66
2022/07/11 04:00:44;;;;;;;2.30;1.80;;;;;;;;;;5068515;28;20222;-66
2022/07/11 04:03:11;;;;;;;1.80;1.80;;;;;;;;;;5068866;28;20589;-66
2022/07/11 04:05:38;;;;;;;1.90;1.80;;;;;;;;;;5067587;28;20302;-66
2022/07/11 04:08:05;;;;;;;1.80;1.70;;;;;;;;;;5069758;28;20203;-66
2022/07/11 04:10:32;;;;;;;1.90;1.80;;;;;;;;;;5068737;28;20218;-66
2022/07/11 04:12:59;;;;;;;2.35;2.22;;;;;;;;;;5068961;28;20210;-66
2022/07/11 04:15:28;;;;;;;2.20;2.17;;;;;;;;;;5069869;28;20203;-66
2022/07/11 04:17:55;;;;;;;2.33;2.15;;;;;;;;;;5070408;28;20207;-66
2022/07/11 04:20:22;;;;;;;1.90;1.80;;;;;;;;;;5066473;28;20265;-65
2022/07/11 04:22:49;;;;;;;1.90;1.80;;;;;;;;;;5069540;28;20203;-66
2022/07/11 04:25:16;;;;;;;2.00;1.77;;;;;;;;;;5070134;28;20589;-65
2022/07/11 04:27:43;;;;;;;3.33;2.40;;;;;;;;;;5070146;28;20199;-65
2022/07/11 04:30:10;;;;;;;2.10;2.00;;;;;;;;;;5069318;28;20214;-66
2022/07/11 04:32:39;;;;;;;1.80;1.75;;;;;;;;;;5069754;28;20268;-65
2022/07/11 04:35:06;;;;;;;1.73;1.73;;;;;;;;;;5069798;28;20577;-66
2022/07/11 04:37:33;;;;;;;2.22;2.13;;;;;;;;;;5070065;28;20214;-65
2022/07/11 04:40:00;;;;;;;2.25;2.15;;;;;;;;;;5069696;28;20210;-65
2022/07/11 04:42:27;;;;;;;2.20;2.10;;;;;;;;;;5069631;28;20257;-66
2022/07/11 04:44:54;;;;;;;1.60;1.60;;;;;;;;;;5069065;28;20676;-66
2022/07/11 04:47:21;;;;;;;2.00;1.90;;;;;;;;;;5069625;28;20296;-64
2022/07/11 04:49:51;;;;;;;1.50;1.50;;;;;;;;;;5070059;28;20664;-66
2022/07/11 04:52:18;;;;;;;1.98;1.95;;;;;;;;;;5070272;28;20268;-65
2022/07/11 04:54:45;;;;;;;2.20;1.75;;;;;;;;;;5066753;28;20603;-66
2022/07/11 04:57:12;;;;;;;2.58;1.65;;;;;;;;;;5069669;28;20215;-66
2022/07/11 04:59:39;;;;;;;1.92;1.92;;;;;;;;;;5070151;28;20210;-66
2022/07/11 05:02:06;;;;;;;7.20;1.95;;;;;;;;;;5068025;28;20246;-66
2022/07/11 05:04:33;;;;;;;1.83;1.73;;;;;;;;;;5070299;28;20226;-67
2022/07/11 05:07:02;;;;;;;7.30;2.22;;;;;;;;;;5070106;28;20653;-71
2022/07/11 05:09:29;;;;;;;1.90;1.90;;;;;;;;;;5070469;28;20225;-69
2022/07/11 05:11:56;;;;;;;1.83;1.83;;;;;;;;;;5069527;28;20206;-69
2022/07/11 05:14:23;;;;;;;1.80;1.70;;;;;;;;;;5070069;28;20203;-70
2022/07/11 05:16:50;;;;;;;3.25;1.52;;;;;;;;;;5070094;28;20211;-69
2022/07/11 05:19:17;;;;;;;1.63;1.52;;;;;;;;;;5070385;28;20720;-69
2022/07/11 05:21:44;;;;;;;1.60;1.50;;;;;;;;;;5069708;28;20226;-70
2022/07/11 05:24:12;;;;;;;1.50;1.50;;;;;;;;;;5068253;28;20210;-70
2022/07/11 05:26:39;;;;;;;2.55;1.40;;;;;;;;;;5068600;28;20214;-70
2022/07/11 05:29:06;;;;;;;1.73;1.70;;;;;;;;;;5069863;28;20214;-71
2022/07/11 05:31:33;;;;;;;1.30;1.30;;;;;;;;;;5069932;28;20206;-77
2022/07/11 05:34:00;;;;;;;1.30;1.30;;;;;;;;;;5078485;28;20190;-71
2022/07/11 05:36:27;;;;;;;3.20;1.27;;;;;;;;;;5084504;28;20202;-71
2022/07/11 05:38:54;;;;;;;1.35;1.25;;;;;;;;;;5083182;28;20211;-70
2022/07/11 05:41:23;;;;;;;2.20;1.60;;;;;;;;;;5067430;28;20222;-70
2022/07/11 05:43:50;;;;;;;1.40;1.30;;;;;;;;;;5066948;28;20206;-71
2022/07/11 05:46:17;;;;;;;2.50;1.15;;;;;;;;;;5069661;28;20250;-70
2022/07/11 05:48:44;;;;;;;439.42;88.05;;;;;;;;;;5069271;28;20200;-70
2022/07/11 05:51:13;;;;;;;7.40;2.40;;;;;;;;;;5069577;28;20576;-70
2022/07/11 05:53:40;;;;;;;2.00;1.80;;;;;;;;;;5069691;28;20219;-70
2022/07/11 05:56:08;;;;;;;1.77;1.67;;;;;;;;;;5069079;28;20238;-70
2022/07/11 05:58:36;;;;;;;1.95;1.45;;;;;;;;;;5069398;28;20260;-70
2022/07/11 06:01:03;;;;;;;1.50;1.40;;;;;;;;;;5064252;28;20227;-70
2022/07/11 06:03:30;;;;;;;1.20;1.20;;;;;;;;;;5058205;28;20673;-70
2022/07/11 06:05:57;;;;;;;1.55;1.42;;;;;;;;;;5049443;28;20203;-70
2022/07/11 06:08:43;;;;;;;2.75;1.38;;;;;;;;;;5049000;28;20748;-70
2022/07/11 06:11:12;;;;;;;1.10;1.10;;;;;;;;;;5049279;28;20208;-70
2022/07/11 06:13:41;;;;;;;3.38;1.50;;;;;;;;;;5049033;28;20582;-70
2022/07/11 06:16:09;;;;;;;1.27;1.20;;;;;;;;;;5048925;28;20577;-70
2022/07/11 06:18:36;;;;;;;2.55;1.40;;;;;;;;;;5048884;28;20218;-70
2022/07/11 06:21:03;;;;;;;1.10;1.02;;;;;;;;;;5048855;28;20235;-70
2022/07/11 06:23:30;;;;;;;1.92;1.30;;;;;;;;;;5056904;28;20222;-70
2022/07/11 06:25:58;;;;;;;1.17;1.10;;;;;;;;;;5070142;28;20211;-69
2022/07/11 06:28:25;;;;;;;1.27;1.20;;;;;;;;;;5068157;28;20226;-70
2022/07/11 06:30:53;;;;;;;1.40;1.40;;;;;;;;;;5077164;28;20222;-70
2022/07/11 06:33:21;;;;;;;1.65;1.40;;;;;;;;;;5089067;28;20210;-68
2022/07/11 06:35:49;;;;;;;1.40;1.30;;;;;;;;;;5073496;28;20580;-66
2022/07/11 06:38:17;;;;;;;3.20;1.33;;;;;;;;;;5068876;28;20237;-66
2022/07/11 06:40:45;;;;;;;1.73;1.63;;;;;;;;;;5068232;28;20218;-66
2022/07/11 06:43:12;;;;;;;1.63;1.52;;;;;;;;;;5068136;28;20264;-66
2022/07/11 06:45:40;;;;;;;1.50;1.40;;;;;;;;;;5067978;28;20324;-66
2022/07/11 06:48:08;;;;;;;1.83;1.73;;;;;;;;;;5085046;28;20225;-66
2022/07/11 06:50:36;;;;;;;1.90;1.80;;;;;;;;;;5088485;28;20574;-66
2022/07/11 06:53:03;;;;;;;1.73;1.63;;;;;;;;;;5085078;28;20264;-66
2022/07/11 06:55:30;;;;;;;2.38;1.80;;;;;;;;;;5067937;28;20234;-65
2022/07/11 06:57:57;;;;;;;1.98;1.73;;;;;;;;;;5068070;28;20238;-65
2022/07/11 07:00:24;;;;;;;2.45;2.17;;;;;;;;;;5068500;28;20219;-66
2022/07/11 07:02:52;;;;;;;4.97;2.22;;;;;;;;;;5068296;28;20227;-66
2022/07/11 07:05:20;;;;;;;3.03;2.38;;;;;;;;;;5067516;28;20202;-66
2022/07/11 07:07:47;;;;;;;2.53;2.42;;;;;;;;;;5068207;28;20268;-66
2022/07/11 07:10:14;;;;;;;3.05;2.10;;;;;;;;;;5067769;28;20198;-65
2022/07/11 07:12:41;;;;;;;2.22;2.15;;;;;;;;;;5067611;28;20238;-66
2022/07/11 07:15:09;;;;;;;1.80;1.67;;;;;;;;;;5067496;28;20215;-66
2022/07/11 07:17:36;;;;;;;1.70;1.70;;;;;;;;;;5067631;28;20206;-66
2022/07/11 07:20:04;;;;;;;1.67;1.67;;;;;;;;;;5067985;28;20213;-66
2022/07/11 07:22:32;;;;;;;1.58;1.58;;;;;;;;;;5067526;28;20227;-67
2022/07/11 07:24:59;;;;;;;1.70;1.70;;;;;;;;;;5067565;28;20210;-67
2022/07/11 07:27:26;;;;;;;2.05;1.95;;;;;;;;;;5067662;28;20213;-67
2022/07/11 07:29:54;;;;;;;1.77;1.77;;;;;;;;;;5067391;28;20261;-67
2022/07/11 07:32:21;;;;;;;1.88;1.67;;;;;;;;;;5071158;28;20231;-67
2022/07/11 07:34:48;;;;;;;2.05;1.90;;;;;;;;;;5071602;28;20218;-67
2022/07/11 07:37:15;;;;;;;2.10;2.00;;;;;;;;;;5071636;28;20204;-67
2022/07/11 07:39:44;;;;;;;1.45;1.38;;;;;;;;;;5071488;28;20242;-67
2022/07/11 07:42:11;;;;;;;2.28;1.50;;;;;;;;;;5070961;28;20238;-66
2022/07/11 07:44:38;;;;;;;1.60;1.50;;;;;;;;;;5071167;28;20210;-67
2022/07/11 07:47:06;;;;;;;1.40;1.40;;;;;;;;;;5071475;28;20207;-67
2022/07/11 07:49:33;;;;;;;1.50;1.40;;;;;;;;;;5071626;28;20217;-67
2022/07/11 07:52:00;;;;;;;1.40;1.30;;;;;;;;;;5075544;28;20206;-67
2022/07/11 07:54:27;;;;;;;1.30;1.30;;;;;;;;;;5069190;28;20231;-67
2022/07/11 07:56:56;;;;;;;2.30;1.40;;;;;;;;;;5070298;28;20740;-67
2022/07/11 07:59:24;;;;;;;1.10;1.10;;;;;;;;;;5070696;28;20206;-68
2022/07/11 08:01:50;;;;;;;1.25;1.25;;;;;;;;;;5067237;28;20653;-66
2022/07/11 08:04:18;;;;;;;1.52;1.42;;;;;;;;;;5071201;28;20199;-66
2022/07/11 08:06:45;;;;;;;1.20;1.20;;;;;;;;;;5070614;28;20261;-66
2022/07/11 08:09:12;;;;;;;1.23;1.23;;;;;;;;;;5071018;28;20214;-66
2022/07/11 08:11:39;;;;;;;1.20;1.20;;;;;;;;;;5069932;28;20206;-65
2022/07/11 08:14:08;;;;;;;1.20;1.20;;;;;;;;;;5070783;28;20624;-73
2022/07/11 08:16:35;;;;;;;1.40;1.30;;;;;;;;;;5077676;28;20668;-74
2022/07/11 08:19:04;;;;;;;1.40;1.30;;;;;;;;;;5070833;28;20256;-72
2022/07/11 08:21:32;;;;;;;2.38;1.90;;;;;;;;;;5063254;28;20231;-72
2022/07/11 08:23:59;;;;;;;1.90;1.90;;;;;;;;;;5070774;28;20269;-73
2022/07/11 08:26:26;;;;;;;1.73;1.65;;;;;;;;;;5071206;28;20206;-74
2022/07/11 08:28:53;;;;;;;1.67;1.67;;;;;;;;;;5071016;28;20210;-73
2022/07/11 08:31:22;;;;;;;1.60;1.60;;;;;;;;;;5071298;28;20211;-69
2022/07/11 08:33:49;;;;;;;1.70;1.63;;;;;;;;;;5069669;28;20229;-70
2022/07/11 08:36:16;;;;;;;1.65;1.65;;;;;;;;;;5070589;28;20280;-70
2022/07/11 08:38:46;;;;;;;1.35;1.35;;;;;;;;;;5070734;28;20861;-70
2022/07/11 08:41:13;;;;;;;1.48;1.48;;;;;;;;;;5070580;28;20647;-69
2022/07/11 08:43:42;;;;;;;1.35;0.90;;;;;;;;;;5068914;28;20226;-70
2022/07/11 08:46:09;;;;;;;0.90;0.90;;;;;;;;;;5085818;28;20328;-70
2022/07/11 08:48:39;;;;;;;0.90;0.90;;;;;;;;;;5068137;28;20211;-69
2022/07/11 08:51:07;;;;;;;1.00;1.00;;;;;;;;;;5069081;28;20203;-73
2022/07/11 08:53:35;;;;;;;1.38;1.17;;;;;;;;;;5070068;28;20242;-73
2022/07/11 08:56:03;;;;;;;1.25;1.25;;;;;;;;;;5069946;28;20230;-73
2022/07/11 08:58:31;;;;;;;1.23;1.23;;;;;;;;;;5069726;28;20218;-72
2022/07/11 09:00:58;;;;;;;1.00;1.00;;;;;;;;;;5069010;28;20199;-73
2022/07/11 09:03:26;;;;;;;1.00;1.00;;;;;;;;;;5069523;28;20231;-72
2022/07/11 09:05:54;;;;;;;1.98;0.82;;;;;;;;;;5069866;28;20677;-72
2022/07/11 09:08:22;;;;;;;1.15;0.80;;;;;;;;;;5066467;28;20215;-73
2022/07/11 09:10:49;;;;;;;1.95;0.90;;;;;;;;;;5069339;28;20211;-73
2022/07/11 09:13:17;;;;;;;0.90;0.90;;;;;;;;;;5069750;28;20260;-72
2022/07/11 09:15:45;;;;;;;0.80;0.80;;;;;;;;;;5069389;28;20210;-74
2022/07/11 09:18:27;;;;;;;1.75;1.33;;;;;;;;;;5069428;28;20673;-67
2022/07/11 09:26:30;;;;;;;0.90;0.90;;;;;;;;;;5069438;28;20306;-67
2022/07/11 09:29:04;;;;;;;1.08;1.08;;;;;;;;;;5069296;28;20724;-68
2022/07/11 09:31:32;;;;;;;1.23;1.20;;;;;;;;;;5069614;28;20691;-65
2022/07/11 09:33:59;;;;;;;1.30;1.30;;;;;;;;;;5068533;28;20260;-66
2022/07/11 09:36:36;;;;;;;1.20;1.20;;;;;;;;;;5068849;28;20214;-66
2022/07/11 09:39:03;;;;;;;1.25;1.25;;;;;;;;;;5069177;28;20298;-63
2022/07/11 09:41:32;;;;;;;1.00;1.00;;;;;;;;;;5069200;28;20219;-67
2022/07/11 09:44:07;;;;;;;1.23;1.23;;;;;;;;;;5068926;28;20330;-68
2022/07/11 09:46:35;;;;;;;1.30;1.30;;;;;;;;;;5068962;28;20243;-70
2022/07/11 09:49:02;;;;;;;1.20;1.02;;;;;;;;;;5069265;28;20637;-69
2022/07/11 09:51:29;;;;;;;1.27;1.27;;;;;;;;;;5068371;28;20203;-68
2022/07/11 09:53:58;;;;;;;1.30;1.30;;;;;;;;;;5068916;28;20200;-66
2022/07/11 09:56:25;;;;;;;1.40;1.40;;;;;;;;;;5069277;28;20207;-66
2022/07/11 09:59:00;;;;;;;1.27;1.27;;;;;;;;;;5069166;28;20689;-67
2022/07/11 10:01:28;;;;;;;1.40;1.10;;;;;;;;;;5069176;28;20206;-66
2022/07/11 10:03:55;;;;;;;1.20;1.20;;;;;;;;;;5068817;28;20447;-66
2022/07/11 10:06:22;;;;;;;1.17;1.17;;;;;;;;;;5069369;28;20211;-67
2022/07/11 10:08:49;;;;;;;1.13;1.13;;;;;;;;;;5068627;28;20241;-66
2022/07/11 10:11:18;;;;;;;1.02;1.02;;;;;;;;;;5068970;28;20336;-64
2022/07/11 10:13:45;;;;;;;1.20;1.20;;;;;;;;;;5068000;28;20203;-61
2022/07/11 10:16:17;;;;;;;1.08;1.08;;;;;;;;;;5068653;28;20207;-61
2022/07/11 10:18:49;;;;;;;1.00;1.00;;;;;;;;;;5069221;28;20672;-64
2022/07/11 10:21:20;;;;;;;2.33;1.20;;;;;;;;;;5068601;28;20260;-63
2022/07/11 10:23:53;;;;;;;2.08;1.10;;;;;;;;;;5071752;28;20648;-65
2022/07/11 10:26:25;;;;;;;1.35;1.35;;;;;;;;;;5068502;28;20211;-64
2022/07/11 10:28:55;;;;;;;1.23;1.20;;;;;;;;;;5068285;28;20602;-64
2022/07/11 10:31:22;;;;;;;1.40;1.40;;;;;;;;;;5068371;28;20264;-63
2022/07/11 10:34:03;;;;;;;1.35;1.35;;;;;;;;;;5068424;28;20778;-69
2022/07/11 10:36:30;;;;;;;1.45;1.35;;;;;;;;;;5069046;28;20653;-69
2022/07/11 10:39:16;;;;;;;1.38;1.30;;;;;;;;;;5068587;28;20210;-66
2022/07/11 10:41:44;;;;;;;1.10;1.10;;;;;;;;;;5068758;28;20584;-64
2022/07/11 10:44:11;;;;;;;1.65;1.23;;;;;;;;;;5068323;28;20281;-63
2022/07/11 10:46:38;;;;;;;1.67;1.33;;;;;;;;;;5068712;28;20243;-61
2022/07/11 10:49:09;;;;;;;1.65;1.55;;;;;;;;;;5067929;28;20221;-61
2022/07/11 10:51:40;;;;;;;1.23;1.23;;;;;;;;;;5063471;28;20206;-67
2022/07/11 10:54:19;;;;;;;1.30;1.30;;;;;;;;;;5066682;28;20211;-66
2022/07/11 10:56:52;;;;;;;1.58;1.58;;;;;;;;;;5065731;28;20214;-65
2022/07/11 10:59:20;;;;;;;1.80;1.48;;;;;;;;;;5088533;28;20298;-65
2022/07/11 11:02:03;;;;;;;1.40;1.40;;;;;;;;;;5080010;28;20214;-65
2022/07/11 11:04:46;;;;;;;1.30;1.30;;;;;;;;;;5068080;28;20213;-65
2022/07/11 11:07:37;;;;;;;1.67;1.58;;;;;;;;;;5067574;28;20222;-65
2022/07/11 11:10:06;;;;;;;1.95;1.85;;;;;;;;;;5067237;28;20570;-64
2022/07/11 11:12:48;;;;;;;1.70;1.60;;;;;;;;;;5067389;28;20538;-65
2022/07/11 11:15:35;;;;;;;1.63;1.60;;;;;;;;;;5066054;28;20670;-65
2022/07/11 11:18:17;;;;;;;1.20;1.20;;;;;;;;;;5067340;28;20937;-65
2022/07/11 11:20:44;;;;;;;1.77;1.60;;;;;;;;;;5066625;28;20207;-65
2022/07/11 11:23:11;;;;;;;1.17;1.17;;;;;;;;;;5066972;28;20222;-64
2022/07/11 11:25:38;;;;;;;1.40;1.40;;;;;;;;;;5066506;28;20314;-65
2022/07/11 11:28:06;;;;;;;1.33;1.33;;;;;;;;;;5067682;28;20265;-65
2022/07/11 11:30:34;;;;;;;1.55;1.55;;;;;;;;;;5067280;28;20207;-65
2022/07/11 11:33:01;;;;;;;1.48;1.48;;;;;;;;;;5068374;28;20199;-65
2022/07/11 11:35:28;;;;;;;1.50;1.50;;;;;;;;;;5081010;28;20691;-65
2022/07/11 11:37:55;;;;;;;1.65;1.60;;;;;;;;;;5076314;28;20225;-65
2022/07/11 11:40:22;;;;;;;2.05;1.40;;;;;;;;;;5066946;28;20799;-65
2022/07/11 11:42:49;;;;;;;1.63;1.63;;;;;;;;;;5066457;28;20274;-65
2022/07/11 11:45:20;;;;;;;1.38;1.38;;;;;;;;;;5067194;28;20257;-65
2022/07/11 11:47:50;;;;;;;1.67;1.58;;;;;;;;;;5067137;28;20297;-65
2022/07/11 11:50:17;;;;;;;1.58;1.48;;;;;;;;;;5066297;28;20286;-66
2022/07/11 11:52:44;;;;;;;1.58;1.58;;;;;;;;;;5066999;28;20576;-65
2022/07/11 11:55:12;;;;;;;1.58;1.30;;;;;;;;;;5082927;28;20237;-65
2022/07/11 11:57:39;;;;;;;1.40;1.40;;;;;;;;;;5066078;28;20286;-65
2022/07/11 12:00:21;;;;;;;3.60;1.50;;;;;;;;;;5067096;28;20203;-65
2022/07/11 12:02:50;;;;;;;1.52;1.52;;;;;;;;;;5066885;28;20219;-66
2022/07/11 12:05:18;;;;;;;1.40;1.30;;;;;;;;;;5066576;28;20211;-66
2022/07/11 12:07:45;;;;;;;1.58;1.42;;;;;;;;;;5067515;28;20211;-65
2022/07/11 12:10:12;;;;;;;1.40;1.30;;;;;;;;;;5066810;28;21202;-65
2022/07/11 12:12:45;;;;;;;1.50;1.50;;;;;;;;;;5066856;28;20203;-64
2022/07/11 12:15:25;;;;;;;1.30;1.30;;;;;;;;;;5069043;28;20203;-64
2022/07/11 12:17:54;;;;;;;1.45;1.45;;;;;;;;;;5076608;28;20297;-65
2022/07/11 12:20:37;;;;;;;2.38;1.48;;;;;;;;;;5070797;28;20218;-65
2022/07/11 12:23:05;;;;;;;1.23;1.23;;;;;;;;;;5080455;28;20238;-64
2022/07/11 12:25:32;;;;;;;1.48;1.33;;;;;;;;;;5071113;28;20214;-64
2022/07/11 12:27:59;;;;;;;2.28;1.38;;;;;;;;;;5070560;28;20207;-64
2022/07/11 12:30:26;;;;;;;1.30;1.30;;;;;;;;;;5070554;28;20202;-64
2022/07/11 12:33:08;;;;;;;1.40;1.40;;;;;;;;;;5070726;28;20207;-65
2022/07/11 12:35:35;;;;;;;4.32;1.15;;;;;;;;;;5070290;28;20653;-64
2022/07/11 12:38:02;;;;;;;2.72;1.52;;;;;;;;;;5070701;28;20210;-65
2022/07/11 12:40:29;;;;;;;1.42;1.42;;;;;;;;;;5075529;28;20230;-64
2022/07/11 12:42:56;;;;;;;1.38;1.35;;;;;;;;;;5062198;28;20219;-64
2022/07/11 12:45:23;;;;;;;1.35;1.35;;;;;;;;;;5070634;28;20280;-64
2022/07/11 12:47:51;;;;;;;1.15;1.15;;;;;;;;;;5069537;28;20267;-64
2022/07/11 12:50:20;;;;;;;3.47;1.33;;;;;;;;;;5070171;28;20195;-64
2022/07/11 12:52:48;;;;;;;1.30;1.30;;;;;;;;;;5070082;28;20223;-65
2022/07/11 12:55:23;;;;;;;1.73;1.63;;;;;;;;;;5087825;28;20226;-65
2022/07/11 12:58:03;;;;;;;2.92;1.20;;;;;;;;;;5080734;28;20214;-65
2022/07/11 13:00:31;;;;;;;1.35;1.35;;;;;;;;;;5070639;28;20229;-65
2022/07/11 13:02:58;;;;;;;1.23;1.23;;;;;;;;;;5070327;28;20199;-65
2022/07/11 13:05:27;;;;;;;1.20;1.20;;;;;;;;;;5070394;28;20210;-65
2022/07/11 13:10:51;;;;;;;1.20;1.20;;;;;;;;;;5070354;28;20194;-64
2022/07/11 13:13:18;;;;;;;1.30;1.20;;;;;;;;;;5070169;28;20252;-64
2022/07/11 13:15:46;;;;;;;1.40;1.40;;;;;;;;;;5069805;28;20211;-64
2022/07/11 13:18:13;;;;;;;1.63;1.20;;;;;;;;;;5067461;28;20223;-65
2022/07/11 13:20:42;;;;;;;1.23;1.23;;;;;;;;;;5065869;28;20211;-65
2022/07/11 13:23:09;;;;;;;1.30;1.30;;;;;;;;;;5066663;28;20366;-65
2022/07/11 13:25:36;;;;;;;1.60;1.50;;;;;;;;;;5069964;28;20214;-65
2022/07/11 13:28:03;;;;;;;1.63;1.52;;;;;;;;;;5069909;28;20203;-62
2022/07/11 13:30:30;;;;;;;1.27;1.27;;;;;;;;;;5069877;28;20233;-65
2022/07/11 13:32:58;;;;;;;1.30;1.30;;;;;;;;;;5070105;28;20203;-65
2022/07/11 13:35:26;;;;;;;2.17;1.35;;;;;;;;;;5063171;28;20249;-65
2022/07/11 13:37:55;;;;;;;1.40;1.40;;;;;;;;;;5065630;28;20202;-64
2022/07/11 13:40:22;;;;;;;1.13;1.13;;;;;;;;;;5065687;28;20219;-65
2022/07/11 13:42:50;;;;;;;1.30;1.30;;;;;;;;;;5072000;28;20217;-64
2022/07/11 13:45:17;;;;;;;1.38;1.38;;;;;;;;;;5058557;28;20238;-65
2022/07/11 13:47:48;;;;;;;1.20;1.20;;;;;;;;;;5065484;28;20328;-64
2022/07/11 13:50:15;;;;;;;1.15;1.15;;;;;;;;;;5076404;28;20218;-64
2022/07/11 13:52:48;;;;;;;1.10;1.10;;;;;;;;;;5069907;28;20215;-64
2022/07/11 13:55:16;;;;;;;1.08;1.08;;;;;;;;;;5064786;28;20230;-64
2022/07/11 13:57:43;;;;;;;1.30;1.20;;;;;;;;;;5065074;28;20206;-64
2022/07/11 14:00:11;;;;;;;1.00;1.00;;;;;;;;;;5065438;28;20213;-65
2022/07/11 14:02:38;;;;;;;1.25;1.25;;;;;;;;;;5064835;28;20203;-64
2022/07/11 14:05:06;;;;;;;1.20;1.20;;;;;;;;;;5065728;28;20312;-65
2022/07/11 14:07:33;;;;;;;1.40;1.10;;;;;;;;;;5065260;28;20237;-65
2022/07/11 14:10:00;;;;;;;1.13;1.05;;;;;;;;;;5063308;28;21084;-65
2022/07/11 14:12:29;;;;;;;1.05;1.05;;;;;;;;;;5077609;28;20213;-65
2022/07/11 14:14:56;;;;;;;1.08;1.08;;;;;;;;;;5062097;28;20309;-65
2022/07/11 14:17:24;;;;;;;1.10;1.10;;;;;;;;;;5064622;28;20306;-65
2022/07/11 14:19:52;;;;;;;1.10;1.10;;;;;;;;;;5059755;28;20211;-64
2022/07/11 14:22:19;;;;;;;1.10;1.10;;;;;;;;;;5065275;28;20207;-65
2022/07/11 14:24:46;;;;;;;1.00;1.00;;;;;;;;;;5065541;28;20234;-65
2022/07/11 14:27:14;;;;;;;0.80;0.80;;;;;;;;;;5064778;28;20199;-65
2022/07/11 14:29:43;;;;;;;1.20;1.20;;;;;;;;;;5071385;28;20730;-65
2022/07/11 14:32:10;;;;;;;0.90;0.90;;;;;;;;;;5065257;28;20218;-65
2022/07/11 14:34:37;;;;;;;0.90;0.90;;;;;;;;;;5064809;28;20677;-65
2022/07/11 14:37:04;;;;;;;0.98;0.98;;;;;;;;;;5082723;28;20202;-65
2022/07/11 14:39:31;;;;;;;1.30;0.95;;;;;;;;;;5066758;28;20330;-65
2022/07/11 14:41:59;;;;;;;1.27;1.20;;;;;;;;;;5063074;28;20273;-65
2022/07/11 14:44:27;;;;;;;0.95;0.95;;;;;;;;;;5064654;28;20284;-65
2022/07/11 14:46:55;;;;;;;0.90;0.90;;;;;;;;;;5063602;28;20289;-65
2022/07/11 14:49:23;;;;;;;1.00;1.00;;;;;;;;;;5064714;28;20218;-65
2022/07/11 14:51:50;;;;;;;1.15;1.15;;;;;;;;;;5064478;28;21035;-65
2022/07/11 14:54:17;;;;;;;1.17;1.17;;;;;;;;;;5077964;28;20741;-65
2022/07/11 14:56:45;;;;;;;0.90;0.90;;;;;;;;;;5064618;28;20260;-64
2022/07/11 14:59:12;;;;;;;1.05;1.05;;;;;;;;;;5063623;28;20207;-65